sensor_id;sensor_type;location;lat;lon;timestamp;temperature;humidity
15949;DHT22;14848;50.954;6.642;2022-08-02T00:02:20;16.30;99.90
15949;DHT22;14848;50.954;6.642;2022-08-02T00:07:12;16.20;99.90
15949;DHT22;14848;50.954;6.642;2022-08-02T00:12:05;16.10;99.90
15949;DHT22;14848;50.954;6.642;2022-08-02T00:14:31;16.10;99.90
15949;DHT22;14848;50.954;6.642;2022-08-02T00:16:57;16.00;99.90
15949;DHT22;14848;50.954;6.642;2022-08-02T00:19:23;16.00;99.90
15949;DHT22;14848;50.954;6.642;2022-08-02T00:21:48;16.00;99.90
15949;DHT22;14848;50.954;6.642;2022-08-02T00:24:14;16.00;99.90
15949;DHT22;14848;50.954;6.642;2022-08-02T00:26:40;16.00;99.90
15949;DHT22;14848;50.954;6.642;2022-08-02T00:29:05;16.20;99.90
15949;DHT22;14848;50.954;6.642;2022-08-02T00:31:31;16.00;99.90
15949;DHT22;14848;50.954;6.642;2022-08-02T00:33:57;15.90;99.90
15949;DHT22;14848;50.954;6.642;2022-08-02T00:36:23;15.90;99.90
15949;DHT22;14848;50.954;6.642;2022-08-02T00:38:48;15.80;99.90
15949;DHT22;14848;50.954;6.642;2022-08-02T00:41:18;15.80;99.90
15949;DHT22;14848;50.954;6.642;2022-08-02T00:43:45;15.90;99.90
15949;DHT22;14848;50.954;6.642;2022-08-02T00:46:10;15.80;99.90
15949;DHT22;14848;50.954;6.642;2022-08-02T00:48:36;15.90;99.90
15949;DHT22;14848;50.954;6.642;2022-08-02T00:51:02;15.90;99.90
15949;DHT22;14848;50.954;6.642;2022-08-02T00:53:28;16.00;99.90
15949;DHT22;14848;50.954;6.642;2022-08-02T00:55:54;16.00;99.90
15949;DHT22;14848;50.954;6.642;2022-08-02T00:58:20;15.90;99.90
15949;DHT22;14848;50.954;6.642;2022-08-02T01:00:46;15.90;99.90
15949;DHT22;14848;50.954;6.642;2022-08-02T01:03:12;15.80;99.90
15949;DHT22;14848;50.954;6.642;2022-08-02T01:05:38;15.80;99.90
15949;DHT22;14848;50.954;6.642;2022-08-02T01:08:04;15.80;99.90
15949;DHT22;14848;50.954;6.642;2022-08-02T01:10:29;15.80;99.90
15949;DHT22;14848;50.954;6.642;2022-08-02T01:12:55;15.70;99.90
15949;DHT22;14848;50.954;6.642;2022-08-02T01:15:21;15.70;99.90
15949;DHT22;14848;50.954;6.642;2022-08-02T01:18:01;15.70;99.90
15949;DHT22;14848;50.954;6.642;2022-08-02T01:28:46;15.70;99.90
15949;DHT22;14848;50.954;6.642;2022-08-02T01:31:25;15.80;99.90
15949;DHT22;14848;50.954;6.642;2022-08-02T01:33:58;15.70;99.90
15949;DHT22;14848;50.954;6.642;2022-08-02T01:36:33;15.80;99.90
15949;DHT22;14848;50.954;6.642;2022-08-02T01:39:01;15.70;99.90
15949;DHT22;14848;50.954;6.642;2022-08-02T01:41:30;15.70;99.90
15949;DHT22;14848;50.954;6.642;2022-08-02T01:43:58;14.70;99.90
15949;DHT22;14848;50.954;6.642;2022-08-02T01:46:26;15.60;99.90
15949;DHT22;14848;50.954;6.642;2022-08-02T01:48:55;15.60;99.90
15949;DHT22;14848;50.954;6.642;2022-08-02T01:51:22;15.60;99.90
15949;DHT22;14848;50.954;6.642;2022-08-02T01:54:12;15.60;99.90
15949;DHT22;14848;50.954;6.642;2022-08-02T01:56:39;15.60;99.90
15949;DHT22;14848;50.954;6.642;2022-08-02T01:59:08;15.60;99.90
15949;DHT22;14848;50.954;6.642;2022-08-02T02:01:36;15.70;99.90
15949;DHT22;14848;50.954;6.642;2022-08-02T02:04:02;15.70;99.90
15949;DHT22;14848;50.954;6.642;2022-08-02T02:06:30;15.70;99.90
15949;DHT22;14848;50.954;6.642;2022-08-02T02:08:59;15.60;99.90
15949;DHT22;14848;50.954;6.642;2022-08-02T02:11:25;15.60;99.90
15949;DHT22;14848;50.954;6.642;2022-08-02T02:13:51;15.60;99.90
15949;DHT22;14848;50.954;6.642;2022-08-02T02:16:18;15.60;99.90
15949;DHT22;14848;50.954;6.642;2022-08-02T02:18:46;15.60;99.90
15949;DHT22;14848;50.954;6.642;2022-08-02T02:21:13;15.50;99.90
15949;DHT22;14848;50.954;6.642;2022-08-02T02:23:39;15.50;99.90
15949;DHT22;14848;50.954;6.642;2022-08-02T02:26:05;15.40;99.90
15949;DHT22;14848;50.954;6.642;2022-08-02T02:28:34;15.40;99.90
15949;DHT22;14848;50.954;6.642;2022-08-02T02:31:07;15.50;99.90
15949;DHT22;14848;50.954;6.642;2022-08-02T02:33:40;15.40;99.90
15949;DHT22;14848;50.954;6.642;2022-08-02T02:36:09;15.40;99.90
15949;DHT22;14848;50.954;6.642;2022-08-02T02:38:37;15.40;99.90
15949;DHT22;14848;50.954;6.642;2022-08-02T02:41:04;15.30;99.90
15949;DHT22;14848;50.954;6.642;2022-08-02T02:43:33;15.30;99.90
15949;DHT22;14848;50.954;6.642;2022-08-02T02:46:01;15.30;99.90
15949;DHT22;14848;50.954;6.642;2022-08-02T02:48:28;15.30;99.90
15949;DHT22;14848;50.954;6.642;2022-08-02T02:50:54;15.30;99.90
15949;DHT22;14848;50.954;6.642;2022-08-02T02:53:21;15.30;99.90
15949;DHT22;14848;50.954;6.642;2022-08-02T02:55:47;15.20;99.90
15949;DHT22;14848;50.954;6.642;2022-08-02T02:58:14;15.20;99.90
15949;DHT22;14848;50.954;6.642;2022-08-02T03:00:40;15.30;99.90
15949;DHT22;14848;50.954;6.642;2022-08-02T03:03:24;15.20;99.90
15949;DHT22;14848;50.954;6.642;2022-08-02T03:05:50;15.20;99.90
15949;DHT22;14848;50.954;6.642;2022-08-02T03:08:16;15.20;99.90
15949;DHT22;14848;50.954;6.642;2022-08-02T03:10:46;15.20;99.90
15949;DHT22;14848;50.954;6.642;2022-08-02T03:13:12;15.10;99.90
15949;DHT22;14848;50.954;6.642;2022-08-02T03:15:39;15.20;99.90
15949;DHT22;14848;50.954;6.642;2022-08-02T03:18:06;15.10;99.90
15949;DHT22;14848;50.954;6.642;2022-08-02T05:08:25;18.00;99.90
15949;DHT22;14848;50.954;6.642;2022-08-02T05:15:43;20.00;99.90
15949;DHT22;14848;50.954;6.642;2022-08-02T05:23:01;21.90;99.90
15949;DHT22;14848;50.954;6.642;2022-08-02T05:25:27;22.00;99.90
15949;DHT22;14848;50.954;6.642;2022-08-02T05:27:53;22.40;99.90
15949;DHT22;14848;50.954;6.642;2022-08-02T05:32:49;23.30;99.90
15949;DHT22;14848;50.954;6.642;2022-08-02T05:35:19;23.70;99.90
15949;DHT22;14848;50.954;6.642;2022-08-02T05:40:11;24.50;99.90
15949;DHT22;14848;50.954;6.642;2022-08-02T05:42:37;24.60;99.90
15949;DHT22;14848;50.954;6.642;2022-08-02T05:45:03;24.90;99.90
15949;DHT22;14848;50.954;6.642;2022-08-02T05:47:29;24.70;99.90
15949;DHT22;14848;50.954;6.642;2022-08-02T05:49:55;25.10;99.90
15949;DHT22;14848;50.954;6.642;2022-08-02T05:52:24;25.50;99.90
15949;DHT22;14848;50.954;6.642;2022-08-02T05:55:11;25.70;99.90
15949;DHT22;14848;50.954;6.642;2022-08-02T06:00:30;25.50;99.90
15949;DHT22;14848;50.954;6.642;2022-08-02T06:03:31;25.50;99.90
15949;DHT22;14848;50.954;6.642;2022-08-02T06:08:33;25.50;99.90
15949;DHT22;14848;50.954;6.642;2022-08-02T06:11:05;25.50;99.90
15949;DHT22;14848;50.954;6.642;2022-08-02T06:13:31;26.00;99.90
15949;DHT22;14848;50.954;6.642;2022-08-02T06:23:22;26.60;99.90
15949;DHT22;14848;50.954;6.642;2022-08-02T06:25:49;27.40;99.90
15949;DHT22;14848;50.954;6.642;2022-08-02T06:28:15;27.40;99.90
15949;DHT22;14848;50.954;6.642;2022-08-02T06:30:43;27.30;99.90
15949;DHT22;14848;50.954;6.642;2022-08-02T06:33:08;27.20;99.90
15949;DHT22;14848;50.954;6.642;2022-08-02T06:35:50;26.90;99.90
15949;DHT22;14848;50.954;6.642;2022-08-02T06:43:54;27.40;99.90
15949;DHT22;14848;50.954;6.642;2022-08-02T06:46:24;28.20;99.90
15949;DHT22;14848;50.954;6.642;2022-08-02T06:48:49;28.60;99.90
15949;DHT22;14848;50.954;6.642;2022-08-02T06:51:16;28.70;99.90
15949;DHT22;14848;50.954;6.642;2022-08-02T06:53:42;28.70;99.90
15949;DHT22;14848;50.954;6.642;2022-08-02T06:56:08;28.90;99.90
15949;DHT22;14848;50.954;6.642;2022-08-02T06:58:34;29.10;99.90
15949;DHT22;14848;50.954;6.642;2022-08-02T07:01:00;29.40;99.90
15949;DHT22;14848;50.954;6.642;2022-08-02T07:03:26;29.50;99.90
15949;DHT22;14848;50.954;6.642;2022-08-02T07:05:52;29.40;99.90
15949;DHT22;14848;50.954;6.642;2022-08-02T07:08:19;29.40;99.90
15949;DHT22;14848;50.954;6.642;2022-08-02T07:10:45;29.60;99.90
15949;DHT22;14848;50.954;6.642;2022-08-02T07:13:11;29.70;99.90
15949;DHT22;14848;50.954;6.642;2022-08-02T07:15:38;29.90;99.90
15949;DHT22;14848;50.954;6.642;2022-08-02T07:18:04;29.40;99.90
15949;DHT22;14848;50.954;6.642;2022-08-02T07:20:31;29.50;99.90
15949;DHT22;14848;50.954;6.642;2022-08-02T07:22:56;29.60;99.90
15949;DHT22;14848;50.954;6.642;2022-08-02T07:25:22;29.60;99.90
15949;DHT22;14848;50.954;6.642;2022-08-02T07:27:48;29.80;99.90
15949;DHT22;14848;50.954;6.642;2022-08-02T07:30:14;30.10;99.90
15949;DHT22;14848;50.954;6.642;2022-08-02T07:32:39;30.10;99.90
15949;DHT22;14848;50.954;6.642;2022-08-02T07:35:06;30.00;99.90
15949;DHT22;14848;50.954;6.642;2022-08-02T07:37:33;30.10;99.90
15949;DHT22;14848;50.954;6.642;2022-08-02T07:42:25;30.40;99.90
15949;DHT22;14848;50.954;6.642;2022-08-02T07:44:53;30.20;99.90
15949;DHT22;14848;50.954;6.642;2022-08-02T07:47:18;30.10;99.90
15949;DHT22;14848;50.954;6.642;2022-08-02T07:49:44;30.00;99.90
15949;DHT22;14848;50.954;6.642;2022-08-02T07:52:10;29.60;99.90
15949;DHT22;14848;50.954;6.642;2022-08-02T07:59:28;28.90;99.90
15949;DHT22;14848;50.954;6.642;2022-08-02T08:01:54;27.60;99.90
15949;DHT22;14848;50.954;6.642;2022-08-02T08:04:20;27.30;99.90
15949;DHT22;14848;50.954;6.642;2022-08-02T08:09:17;26.80;99.90
15949;DHT22;14848;50.954;6.642;2022-08-02T08:11:43;26.40;99.90
15949;DHT22;14848;50.954;6.642;2022-08-02T08:14:09;26.30;99.90
15949;DHT22;14848;50.954;6.642;2022-08-02T08:16:34;26.20;99.90
15949;DHT22;14848;50.954;6.642;2022-08-02T08:19:00;26.30;99.90
15949;DHT22;14848;50.954;6.642;2022-08-02T08:21:27;26.30;99.90
15949;DHT22;14848;50.954;6.642;2022-08-02T08:23:54;26.30;99.90
15949;DHT22;14848;50.954;6.642;2022-08-02T08:26:20;26.10;99.90
15949;DHT22;14848;50.954;6.642;2022-08-02T08:33:38;25.00;99.90
15949;DHT22;14848;50.954;6.642;2022-08-02T08:36:04;26.00;99.90
15949;DHT22;14848;50.954;6.642;2022-08-02T08:38:30;26.20;99.90
15949;DHT22;14848;50.954;6.642;2022-08-02T08:40:55;26.40;99.90
15949;DHT22;14848;50.954;6.642;2022-08-02T08:43:21;26.60;99.90
15949;DHT22;14848;50.954;6.642;2022-08-02T08:45:48;26.80;99.90
15949;DHT22;14848;50.954;6.642;2022-08-02T09:25:39;26.90;99.90
15949;DHT22;14848;50.954;6.642;2022-08-02T11:38:42;27.00;99.90
15949;DHT22;14848;50.954;6.642;2022-08-02T11:41:08;29.20;99.90
15949;DHT22;14848;50.954;6.642;2022-08-02T11:43:34;29.10;99.90
15949;DHT22;14848;50.954;6.642;2022-08-02T11:46:04;29.10;99.90
15949;DHT22;14848;50.954;6.642;2022-08-02T11:48:38;29.20;99.90
15949;DHT22;14848;50.954;6.642;2022-08-02T11:51:13;29.30;99.90
15949;DHT22;14848;50.954;6.642;2022-08-02T11:53:51;29.50;99.90
15949;DHT22;14848;50.954;6.642;2022-08-02T11:56:24;29.60;99.90
15949;DHT22;14848;50.954;6.642;2022-08-02T11:59:09;29.70;99.90
15949;DHT22;14848;50.954;6.642;2022-08-02T12:01:37;29.80;99.90
15949;DHT22;14848;50.954;6.642;2022-08-02T12:04:05;30.00;99.90
15949;DHT22;14848;50.954;6.642;2022-08-02T12:06:31;30.00;99.90
15949;DHT22;14848;50.954;6.642;2022-08-02T12:09:04;30.00;99.90
15949;DHT22;14848;50.954;6.642;2022-08-02T12:11:30;29.70;99.90
15949;DHT22;14848;50.954;6.642;2022-08-02T12:13:56;29.50;99.90
15949;DHT22;14848;50.954;6.642;2022-08-02T12:26:46;29.60;99.90
15949;DHT22;14848;50.954;6.642;2022-08-02T12:29:12;29.90;99.90
15949;DHT22;14848;50.954;6.642;2022-08-02T12:31:47;29.90;99.90
15949;DHT22;14848;50.954;6.642;2022-08-02T12:34:15;29.80;99.90
15949;DHT22;14848;50.954;6.642;2022-08-02T12:37:07;29.70;99.90
15949;DHT22;14848;50.954;6.642;2022-08-02T12:42:05;29.40;99.90
15949;DHT22;14848;50.954;6.642;2022-08-02T12:44:32;29.40;99.90
15949;DHT22;14848;50.954;6.642;2022-08-02T12:47:07;29.30;99.90
15949;DHT22;14848;50.954;6.642;2022-08-02T12:49:36;29.20;99.90
15949;DHT22;14848;50.954;6.642;2022-08-02T12:52:21;29.40;99.90
15949;DHT22;14848;50.954;6.642;2022-08-02T12:54:47;29.50;99.90
15949;DHT22;14848;50.954;6.642;2022-08-02T12:57:17;29.60;99.90
15949;DHT22;14848;50.954;6.642;2022-08-02T12:59:51;29.70;99.90
15949;DHT22;14848;50.954;6.642;2022-08-02T13:02:18;29.70;99.90
15949;DHT22;14848;50.954;6.642;2022-08-02T13:04:44;29.60;99.90
15949;DHT22;14848;50.954;6.642;2022-08-02T13:07:10;29.40;99.90
15949;DHT22;14848;50.954;6.642;2022-08-02T13:09:37;29.40;99.90
15949;DHT22;14848;50.954;6.642;2022-08-02T13:12:05;29.50;99.90
15949;DHT22;14848;50.954;6.642;2022-08-02T13:14:32;29.50;99.90
15949;DHT22;14848;50.954;6.642;2022-08-02T13:16:58;29.40;99.90
15949;DHT22;14848;50.954;6.642;2022-08-02T13:19:24;29.20;99.90
15949;DHT22;14848;50.954;6.642;2022-08-02T13:21:51;29.20;99.90
15949;DHT22;14848;50.954;6.642;2022-08-02T13:24:17;29.30;99.90
15949;DHT22;14848;50.954;6.642;2022-08-02T13:26:43;29.20;99.90
15949;DHT22;14848;50.954;6.642;2022-08-02T13:29:10;29.30;99.90
15949;DHT22;14848;50.954;6.642;2022-08-02T13:31:36;29.60;99.90
15949;DHT22;14848;50.954;6.642;2022-08-02T13:34:07;29.80;99.90
15949;DHT22;14848;50.954;6.642;2022-08-02T13:36:34;30.00;99.90
15949;DHT22;14848;50.954;6.642;2022-08-02T13:39:03;30.10;99.90
15949;DHT22;14848;50.954;6.642;2022-08-02T13:41:30;30.20;99.90
15949;DHT22;14848;50.954;6.642;2022-08-02T13:43:56;30.10;99.90
15949;DHT22;14848;50.954;6.642;2022-08-02T13:46:22;29.90;99.90
15949;DHT22;14848;50.954;6.642;2022-08-02T13:48:47;29.70;99.90
15949;DHT22;14848;50.954;6.642;2022-08-02T13:51:13;29.50;99.90
15949;DHT22;14848;50.954;6.642;2022-08-02T13:53:39;29.60;99.90
15949;DHT22;14848;50.954;6.642;2022-08-02T13:56:05;29.60;99.90
15949;DHT22;14848;50.954;6.642;2022-08-02T13:58:31;29.60;99.90
15949;DHT22;14848;50.954;6.642;2022-08-02T14:00:57;29.70;99.90
15949;DHT22;14848;50.954;6.642;2022-08-02T14:03:23;29.80;99.90
15949;DHT22;14848;50.954;6.642;2022-08-02T14:05:49;29.90;99.90
15949;DHT22;14848;50.954;6.642;2022-08-02T14:08:16;30.10;99.90
15949;DHT22;14848;50.954;6.642;2022-08-02T14:10:42;30.10;99.90
15949;DHT22;14848;50.954;6.642;2022-08-02T14:13:08;30.00;99.90
15949;DHT22;14848;50.954;6.642;2022-08-02T14:15:35;29.00;99.90
15949;DHT22;14848;50.954;6.642;2022-08-02T14:18:00;30.00;99.90
15949;DHT22;14848;50.954;6.642;2022-08-02T14:20:26;30.00;99.90
15949;DHT22;14848;50.954;6.642;2022-08-02T14:22:52;30.00;99.90
15949;DHT22;14848;50.954;6.642;2022-08-02T14:25:18;30.00;99.90
15949;DHT22;14848;50.954;6.642;2022-08-02T14:27:43;30.10;99.90
15949;DHT22;14848;50.954;6.642;2022-08-02T14:30:09;30.10;99.90
15949;DHT22;14848;50.954;6.642;2022-08-02T14:32:35;30.10;99.90
15949;DHT22;14848;50.954;6.642;2022-08-02T14:35:01;30.10;99.90
15949;DHT22;14848;50.954;6.642;2022-08-02T14:37:27;30.00;99.90
15949;DHT22;14848;50.954;6.642;2022-08-02T14:39:52;30.10;99.90
15949;DHT22;14848;50.954;6.642;2022-08-02T14:42:18;30.00;99.90
15949;DHT22;14848;50.954;6.642;2022-08-02T14:44:43;29.80;99.90
15949;DHT22;14848;50.954;6.642;2022-08-02T14:47:09;29.60;99.90
15949;DHT22;14848;50.954;6.642;2022-08-02T14:49:35;29.50;99.90
15949;DHT22;14848;50.954;6.642;2022-08-02T14:52:00;29.50;99.90
15949;DHT22;14848;50.954;6.642;2022-08-02T14:54:27;29.50;99.90
15949;DHT22;14848;50.954;6.642;2022-08-02T14:57:01;29.70;99.90
15949;DHT22;14848;50.954;6.642;2022-08-02T14:59:28;29.80;99.90
15949;DHT22;14848;50.954;6.642;2022-08-02T15:01:54;30.00;99.90
15949;DHT22;14848;50.954;6.642;2022-08-02T15:04:20;30.00;99.90
15949;DHT22;14848;50.954;6.642;2022-08-02T15:06:45;30.10;99.90
15949;DHT22;14848;50.954;6.642;2022-08-02T15:09:11;30.00;99.90
15949;DHT22;14848;50.954;6.642;2022-08-02T15:11:38;30.00;99.90
15949;DHT22;14848;50.954;6.642;2022-08-02T15:14:04;29.90;99.90
15949;DHT22;14848;50.954;6.642;2022-08-02T15:16:29;29.80;99.90
15949;DHT22;14848;50.954;6.642;2022-08-02T15:19:03;29.80;99.90
15949;DHT22;14848;50.954;6.642;2022-08-02T15:21:29;29.70;99.90
15949;DHT22;14848;50.954;6.642;2022-08-02T15:23:54;29.80;99.90
15949;DHT22;14848;50.954;6.642;2022-08-02T15:26:20;29.90;99.90
15949;DHT22;14848;50.954;6.642;2022-08-02T15:28:47;30.00;99.90
15949;DHT22;14848;50.954;6.642;2022-08-02T15:31:13;30.00;99.90
15949;DHT22;14848;50.954;6.642;2022-08-02T15:33:39;30.10;99.90
15949;DHT22;14848;50.954;6.642;2022-08-02T15:36:06;30.20;99.90
15949;DHT22;14848;50.954;6.642;2022-08-02T15:38:32;30.30;99.90
15949;DHT22;14848;50.954;6.642;2022-08-02T15:40:59;30.40;99.90
15949;DHT22;14848;50.954;6.642;2022-08-02T15:43:24;30.50;99.90
15949;DHT22;14848;50.954;6.642;2022-08-02T15:45:50;30.50;99.90
15949;DHT22;14848;50.954;6.642;2022-08-02T15:48:16;30.50;99.90
15949;DHT22;14848;50.954;6.642;2022-08-02T15:50:42;30.50;99.90
15949;DHT22;14848;50.954;6.642;2022-08-02T15:53:08;30.40;99.90
15949;DHT22;14848;50.954;6.642;2022-08-02T15:55:34;30.40;99.90
15949;DHT22;14848;50.954;6.642;2022-08-02T15:57:59;30.40;99.90
15949;DHT22;14848;50.954;6.642;2022-08-02T16:00:25;30.30;99.90
15949;DHT22;14848;50.954;6.642;2022-08-02T16:02:54;30.20;99.90
15949;DHT22;14848;50.954;6.642;2022-08-02T16:05:20;30.30;99.90
15949;DHT22;14848;50.954;6.642;2022-08-02T16:07:46;30.50;99.90
15949;DHT22;14848;50.954;6.642;2022-08-02T16:10:13;30.70;99.90
15949;DHT22;14848;50.954;6.642;2022-08-02T16:12:39;30.70;99.90
15949;DHT22;14848;50.954;6.642;2022-08-02T16:15:05;30.90;99.90
15949;DHT22;14848;50.954;6.642;2022-08-02T16:17:31;30.90;99.90
15949;DHT22;14848;50.954;6.642;2022-08-02T16:19:56;30.90;99.90
15949;DHT22;14848;50.954;6.642;2022-08-02T16:22:22;30.90;99.90
15949;DHT22;14848;50.954;6.642;2022-08-02T16:24:48;30.80;99.90
15949;DHT22;14848;50.954;6.642;2022-08-02T16:27:15;30.70;99.90
15949;DHT22;14848;50.954;6.642;2022-08-02T16:29:40;30.60;99.90
15949;DHT22;14848;50.954;6.642;2022-08-02T16:32:06;30.60;99.90
15949;DHT22;14848;50.954;6.642;2022-08-02T16:34:32;30.70;99.90
15949;DHT22;14848;50.954;6.642;2022-08-02T16:36:58;30.70;99.90
15949;DHT22;14848;50.954;6.642;2022-08-02T16:39:23;30.70;99.90
15949;DHT22;14848;50.954;6.642;2022-08-02T16:41:49;30.70;99.90
15949;DHT22;14848;50.954;6.642;2022-08-02T16:44:15;30.90;99.90
15949;DHT22;14848;50.954;6.642;2022-08-02T16:46:40;30.90;99.90
15949;DHT22;14848;50.954;6.642;2022-08-02T16:49:06;30.90;99.90
15949;DHT22;14848;50.954;6.642;2022-08-02T16:51:32;30.70;99.90
15949;DHT22;14848;50.954;6.642;2022-08-02T16:53:57;30.80;99.90
15949;DHT22;14848;50.954;6.642;2022-08-02T16:56:23;30.70;99.90
15949;DHT22;14848;50.954;6.642;2022-08-02T16:58:49;30.60;99.90
15949;DHT22;14848;50.954;6.642;2022-08-02T17:01:15;30.70;99.90
15949;DHT22;14848;50.954;6.642;2022-08-02T17:03:41;30.70;99.90
15949;DHT22;14848;50.954;6.642;2022-08-02T17:06:06;30.70;99.90
15949;DHT22;14848;50.954;6.642;2022-08-02T17:08:32;30.50;99.90
15949;DHT22;14848;50.954;6.642;2022-08-02T17:10:59;30.50;99.90
15949;DHT22;14848;50.954;6.642;2022-08-02T17:13:25;30.40;99.90
15949;DHT22;14848;50.954;6.642;2022-08-02T17:15:51;30.30;99.90
15949;DHT22;14848;50.954;6.642;2022-08-02T17:18:16;30.30;99.90
15949;DHT22;14848;50.954;6.642;2022-08-02T17:20:42;30.40;99.90
15949;DHT22;14848;50.954;6.642;2022-08-02T17:23:09;30.70;99.90
15949;DHT22;14848;50.954;6.642;2022-08-02T17:25:36;30.60;99.90
15949;DHT22;14848;50.954;6.642;2022-08-02T17:28:02;30.70;99.90
15949;DHT22;14848;50.954;6.642;2022-08-02T17:30:28;30.60;99.90
15949;DHT22;14848;50.954;6.642;2022-08-02T17:32:54;30.70;99.90
15949;DHT22;14848;50.954;6.642;2022-08-02T17:35:20;30.70;99.90
15949;DHT22;14848;50.954;6.642;2022-08-02T17:37:46;30.70;99.90
15949;DHT22;14848;50.954;6.642;2022-08-02T17:40:11;30.60;99.90
15949;DHT22;14848;50.954;6.642;2022-08-02T17:42:37;30.60;99.90
15949;DHT22;14848;50.954;6.642;2022-08-02T17:45:05;30.50;99.90
15949;DHT22;14848;50.954;6.642;2022-08-02T17:47:31;30.40;99.90
15949;DHT22;14848;50.954;6.642;2022-08-02T17:49:56;30.30;99.90
15949;DHT22;14848;50.954;6.642;2022-08-02T17:52:23;30.30;99.90
15949;DHT22;14848;50.954;6.642;2022-08-02T17:54:49;30.20;99.90
15949;DHT22;14848;50.954;6.642;2022-08-02T17:57:16;30.20;99.90
15949;DHT22;14848;50.954;6.642;2022-08-02T17:59:57;30.50;99.90
15949;DHT22;14848;50.954;6.642;2022-08-02T18:02:22;30.40;99.90
15949;DHT22;14848;50.954;6.642;2022-08-02T18:04:48;30.50;99.90
15949;DHT22;14848;50.954;6.642;2022-08-02T18:07:14;30.50;99.90
15949;DHT22;14848;50.954;6.642;2022-08-02T18:09:40;30.50;99.90
15949;DHT22;14848;50.954;6.642;2022-08-02T18:12:06;30.20;99.90
15949;DHT22;14848;50.954;6.642;2022-08-02T18:14:32;30.20;99.90
15949;DHT22;14848;50.954;6.642;2022-08-02T18:16:57;30.10;99.90
15949;DHT22;14848;50.954;6.642;2022-08-02T18:19:23;30.10;99.90
15949;DHT22;14848;50.954;6.642;2022-08-02T18:21:49;29.90;99.90
15949;DHT22;14848;50.954;6.642;2022-08-02T18:24:15;29.80;99.90
15949;DHT22;14848;50.954;6.642;2022-08-02T18:26:40;29.60;99.90
15949;DHT22;14848;50.954;6.642;2022-08-02T18:29:06;29.50;99.90
15949;DHT22;14848;50.954;6.642;2022-08-02T18:31:35;29.20;99.90
15949;DHT22;14848;50.954;6.642;2022-08-02T18:34:01;29.00;99.90
15949;DHT22;14848;50.954;6.642;2022-08-02T18:36:28;28.80;99.90
15949;DHT22;14848;50.954;6.642;2022-08-02T18:38:54;28.60;99.90
15949;DHT22;14848;50.954;6.642;2022-08-02T18:41:19;28.30;99.90
15949;DHT22;14848;50.954;6.642;2022-08-02T18:43:45;28.30;99.90
15949;DHT22;14848;50.954;6.642;2022-08-02T18:46:11;28.10;99.90
15949;DHT22;14848;50.954;6.642;2022-08-02T18:48:37;28.10;99.90
15949;DHT22;14848;50.954;6.642;2022-08-02T18:51:04;28.00;99.90
15949;DHT22;14848;50.954;6.642;2022-08-02T18:53:30;27.80;99.90
15949;DHT22;14848;50.954;6.642;2022-08-02T18:55:55;27.70;99.90
15949;DHT22;14848;50.954;6.642;2022-08-02T18:58:21;27.60;99.90
15949;DHT22;14848;50.954;6.642;2022-08-02T19:00:48;27.50;99.90
15949;DHT22;14848;50.954;6.642;2022-08-02T19:03:14;27.40;99.90
15949;DHT22;14848;50.954;6.642;2022-08-02T19:05:40;27.30;99.90
15949;DHT22;14848;50.954;6.642;2022-08-02T19:08:06;27.20;99.90
15949;DHT22;14848;50.954;6.642;2022-08-02T19:17:55;27.10;99.90
15949;DHT22;14848;50.954;6.642;2022-08-02T19:22:48;26.70;99.90
15949;DHT22;14848;50.954;6.642;2022-08-02T19:25:14;26.50;99.90
15949;DHT22;14848;50.954;6.642;2022-08-02T19:30:08;26.40;99.90
15949;DHT22;14848;50.954;6.642;2022-08-02T19:32:34;26.40;99.90
15949;DHT22;14848;50.954;6.642;2022-08-02T19:35:01;26.20;99.90
15949;DHT22;14848;50.954;6.642;2022-08-02T19:39:54;26.20;99.90
15949;DHT22;14848;50.954;6.642;2022-08-02T20:14:07;25.80;99.90
15949;DHT22;14848;50.954;6.642;2022-08-02T20:16:35;24.60;99.90
15949;DHT22;14848;50.954;6.642;2022-08-02T20:19:03;24.50;99.90
15949;DHT22;14848;50.954;6.642;2022-08-02T20:21:29;24.40;99.90
15949;DHT22;14848;50.954;6.642;2022-08-02T20:23:55;24.30;99.90
15949;DHT22;14848;50.954;6.642;2022-08-02T20:26:20;24.20;99.90
15949;DHT22;14848;50.954;6.642;2022-08-02T20:28:46;24.10;99.90
15949;DHT22;14848;50.954;6.642;2022-08-02T20:31:12;24.10;99.90
15949;DHT22;14848;50.954;6.642;2022-08-02T20:33:37;23.90;99.90
15949;DHT22;14848;50.954;6.642;2022-08-02T20:36:03;23.80;99.90
15949;DHT22;14848;50.954;6.642;2022-08-02T20:38:30;23.80;99.90
15949;DHT22;14848;50.954;6.642;2022-08-02T20:40:55;23.60;99.90
15949;DHT22;14848;50.954;6.642;2022-08-02T20:43:21;23.60;99.90
15949;DHT22;14848;50.954;6.642;2022-08-02T20:45:47;23.50;99.90
15949;DHT22;14848;50.954;6.642;2022-08-02T20:48:15;23.50;99.90
15949;DHT22;14848;50.954;6.642;2022-08-02T20:50:40;23.50;99.90
15949;DHT22;14848;50.954;6.642;2022-08-02T20:53:13;23.50;99.90
15949;DHT22;14848;50.954;6.642;2022-08-02T20:55:43;23.40;99.90
15949;DHT22;14848;50.954;6.642;2022-08-02T20:58:10;23.40;99.90
15949;DHT22;14848;50.954;6.642;2022-08-02T21:00:36;23.20;99.90
15949;DHT22;14848;50.954;6.642;2022-08-02T21:03:03;23.30;99.90
15949;DHT22;14848;50.954;6.642;2022-08-02T21:05:29;23.20;99.90
15949;DHT22;14848;50.954;6.642;2022-08-02T21:07:56;23.10;99.90
15949;DHT22;14848;50.954;6.642;2022-08-02T21:10:23;23.10;99.90
15949;DHT22;14848;50.954;6.642;2022-08-02T21:12:50;23.00;99.90
15949;DHT22;14848;50.954;6.642;2022-08-02T21:15:15;22.50;99.90
15949;DHT22;14848;50.954;6.642;2022-08-02T21:17:41;23.00;99.90
15949;DHT22;14848;50.954;6.642;2022-08-02T21:20:07;22.90;99.90
15949;DHT22;14848;50.954;6.642;2022-08-02T21:22:33;22.80;99.90
15949;DHT22;14848;50.954;6.642;2022-08-02T21:24:59;22.60;99.90
15949;DHT22;14848;50.954;6.642;2022-08-02T21:27:24;22.80;99.90
15949;DHT22;14848;50.954;6.642;2022-08-02T21:29:50;22.80;99.90
15949;DHT22;14848;50.954;6.642;2022-08-02T21:32:15;22.70;99.90
15949;DHT22;14848;50.954;6.642;2022-08-02T21:34:41;22.70;99.90
15949;DHT22;14848;50.954;6.642;2022-08-02T21:37:07;22.70;99.90
15949;DHT22;14848;50.954;6.642;2022-08-02T21:39:32;22.60;99.90
15949;DHT22;14848;50.954;6.642;2022-08-02T21:41:58;22.50;99.90
15949;DHT22;14848;50.954;6.642;2022-08-02T21:44:24;22.40;99.90
15949;DHT22;14848;50.954;6.642;2022-08-02T21:46:52;22.40;99.90
15949;DHT22;14848;50.954;6.642;2022-08-02T21:49:22;22.30;99.90
15949;DHT22;14848;50.954;6.642;2022-08-02T21:51:48;22.20;99.90
15949;DHT22;14848;50.954;6.642;2022-08-02T21:54:14;22.10;99.90
15949;DHT22;14848;50.954;6.642;2022-08-02T21:56:40;22.00;99.90
15949;DHT22;14848;50.954;6.642;2022-08-02T21:59:05;22.00;99.90
15949;DHT22;14848;50.954;6.642;2022-08-02T22:01:31;22.00;99.90
15949;DHT22;14848;50.954;6.642;2022-08-02T22:03:57;21.90;99.90
15949;DHT22;14848;50.954;6.642;2022-08-02T22:06:23;21.90;99.90